Time;durP1;ratioP1;P1;durP2;ratioP2;P2;SDS_P1;SDS_P2;PMS_P1;PMS_P2;Temp;Humidity;BMP_temperature;BMP_pressure;BME280_temperature;BME280_humidity;BME280_pressure;Samples;Min_cycle;Max_cycle;Signal;HPM_P1;HPM_P2
2022/12/13 00:01:40;;;;;;;20.83;14.27;;;0.60;99.90;;;;;;5010267;28;20177;-73
2022/12/13 00:04:07;;;;;;;20.17;15.23;;;0.60;99.90;;;;;;5029320;28;20193;-73
2022/12/13 00:06:33;;;;;;;19.30;13.02;;;0.60;99.90;;;;;;5003719;28;20654;-73
2022/12/13 00:09:00;;;;;;;19.85;14.98;;;0.60;99.90;;;;;;5017183;28;20186;-73
2022/12/13 00:11:27;;;;;;;25.92;15.55;;;0.60;99.90;;;;;;5022893;28;20193;-73
2022/12/13 00:13:53;;;;;;;22.90;15.25;;;0.60;99.90;;;;;;4989945;28;20201;-74
2022/12/13 00:16:23;;;;;;;20.02;13.73;;;0.50;99.90;;;;;;5010233;28;20181;-75
2022/12/13 00:18:54;;;;;;;23.52;16.73;;;0.50;99.90;;;;;;4999510;28;20646;-74
2022/12/13 00:21:22;;;;;;;20.02;14.63;;;0.50;99.90;;;;;;5028298;28;20185;-74
2022/12/13 00:23:48;;;;;;;24.05;16.17;;;0.50;99.90;;;;;;5011023;28;20240;-74
2022/12/13 00:26:18;;;;;;;19.70;14.07;;;0.50;99.90;;;;;;5011184;28;20197;-73
2022/12/13 00:28:48;;;;;;;20.88;13.20;;;0.50;99.90;;;;;;5028619;28;20256;-73
2022/12/13 00:31:14;;;;;;;17.98;14.25;;;0.50;99.90;;;;;;5028129;28;20210;-74
2022/12/13 00:33:40;;;;;;;19.08;12.07;;;0.50;99.90;;;;;;5028404;28;20669;-73
2022/12/13 00:36:07;;;;;;;21.87;15.23;;;0.50;99.90;;;;;;5011325;28;20181;-73
2022/12/13 00:38:34;;;;;;;21.30;15.48;;;0.50;99.90;;;;;;5028396;28;20608;-73
2022/12/13 00:41:08;;;;;;;30.95;19.65;;;0.40;99.90;;;;;;5011076;28;20188;-73
2022/12/13 00:43:33;;;;;;;21.85;16.55;;;0.40;99.90;;;;;;5011090;28;20206;-73
2022/12/13 00:45:59;;;;;;;27.53;19.57;;;0.40;99.90;;;;;;5015573;28;20277;-73
2022/12/13 00:48:25;;;;;;;30.63;19.10;;;0.30;99.90;;;;;;5012953;28;20178;-73
2022/12/13 00:50:52;;;;;;;27.08;17.50;;;0.30;99.90;;;;;;5003809;28;20198;-72
2022/12/13 00:53:17;;;;;;;25.67;18.73;;;0.30;99.90;;;;;;5004826;28;20196;-73
2022/12/13 00:55:43;;;;;;;26.30;17.57;;;0.30;99.90;;;;;;5032147;28;21396;-73
2022/12/13 00:58:09;;;;;;;25.00;18.10;;;0.30;99.90;;;;;;5014401;28;20521;-73
2022/12/13 01:00:35;;;;;;;28.07;18.87;;;0.20;99.90;;;;;;4981867;28;20174;-73
2022/12/13 01:03:19;;;;;;;24.60;18.33;;;0.20;99.90;;;;;;4981036;28;20208;-74
2022/12/13 01:05:46;;;;;;;21.75;15.25;;;0.20;99.90;;;;;;5014268;28;20950;-73
2022/12/13 01:08:12;;;;;;;26.08;17.42;;;0.20;99.90;;;;;;5014402;28;20177;-74
2022/12/13 01:10:42;;;;;;;29.33;19.00;;;0.20;99.90;;;;;;5005021;28;20202;-73
2022/12/13 01:13:08;;;;;;;25.67;18.83;;;0.20;99.90;;;;;;4994640;28;20632;-73
2022/12/13 01:15:33;;;;;;;24.47;17.50;;;0.20;99.90;;;;;;4986810;28;20581;-73
2022/12/13 01:17:59;;;;;;;25.30;16.03;;;0.20;99.90;;;;;;5004050;28;20174;-74
2022/12/13 01:20:25;;;;;;;28.73;21.50;;;0.20;99.90;;;;;;5005489;28;20170;-74
2022/12/13 01:22:50;;;;;;;23.63;16.40;;;0.20;99.90;;;;;;5004609;28;20170;-74
2022/12/13 01:25:16;;;;;;;22.73;15.07;;;0.20;99.90;;;;;;5004194;28;20190;-73
2022/12/13 01:27:42;;;;;;;21.63;15.13;;;0.20;99.90;;;;;;5012619;28;20188;-73
2022/12/13 01:30:08;;;;;;;36.27;22.40;;;0.20;99.90;;;;;;5031618;28;20643;-73
2022/12/13 01:32:34;;;;;;;22.23;15.10;;;0.10;99.90;;;;;;5013132;28;20177;-73
2022/12/13 01:35:00;;;;;;;23.10;16.27;;;0.20;99.90;;;;;;5013570;28;20193;-73
2022/12/13 01:37:26;;;;;;;22.48;16.63;;;0.10;99.90;;;;;;5013892;28;21146;-73
2022/12/13 01:39:53;;;;;;;22.48;15.20;;;0.10;99.90;;;;;;5013122;28;20177;-73
2022/12/13 01:42:18;;;;;;;21.00;15.80;;;0.10;99.90;;;;;;5013030;28;20546;-72
2022/12/13 01:45:19;;;;;;;21.00;14.87;;;0.10;99.90;;;;;;5004445;28;20240;-73
2022/12/13 01:47:49;;;;;;;18.70;13.20;;;0.10;99.90;;;;;;5003665;28;20182;-73
2022/12/13 01:50:21;;;;;;;28.13;18.75;;;0.10;99.90;;;;;;5013310;28;20296;-73
2022/12/13 01:52:48;;;;;;;20.73;14.23;;;0.10;99.90;;;;;;5012577;28;20601;-73
2022/12/13 01:55:18;;;;;;;24.80;15.45;;;0.10;99.90;;;;;;5012485;28;20201;-73
2022/12/13 01:57:47;;;;;;;25.20;18.02;;;0.00;99.90;;;;;;5013476;28;20536;-73
2022/12/13 02:00:14;;;;;;;20.48;13.55;;;0.00;99.90;;;;;;5031299;28;20197;-73
2022/12/13 02:02:40;;;;;;;21.42;15.07;;;0.00;99.90;;;;;;5028622;28;20177;-74
2022/12/13 02:05:10;;;;;;;19.27;13.45;;;0.00;99.90;;;;;;5020608;28;20252;-73
2022/12/13 02:07:39;;;;;;;25.60;15.32;;;0.00;99.90;;;;;;4987336;28;20170;-73
2022/12/13 02:10:06;;;;;;;21.25;15.55;;;0.00;99.90;;;;;;4993346;28;20198;-73
2022/12/13 02:12:35;;;;;;;19.00;15.05;;;0.00;99.90;;;;;;5009980;28;20171;-73
2022/12/13 02:15:16;;;;;;;23.13;15.73;;;0.00;99.90;;;;;;5009768;28;20206;-73
2022/12/13 02:18:20;;;;;;;19.23;12.85;;;-0.10;99.90;;;;;;4993470;28;20265;-73
2022/12/13 02:20:57;;;;;;;20.58;14.60;;;-0.10;99.90;;;;;;4947379;28;20273;-73
2022/12/13 02:23:41;;;;;;;23.45;16.35;;;-0.10;99.90;;;;;;5008491;28;20252;-73
2022/12/13 02:26:33;;;;;;;24.65;16.88;;;-0.10;99.90;;;;;;4993439;28;20178;-73
2022/12/13 02:29:18;;;;;;;24.35;16.55;;;-0.10;99.90;;;;;;4989502;28;20190;-74
2022/12/13 02:31:58;;;;;;;23.45;15.98;;;-0.20;99.90;;;;;;4992663;28;20177;-73
2022/12/13 02:34:31;;;;;;;23.27;14.43;;;-0.20;99.90;;;;;;4993807;28;20190;-73
2022/12/13 02:36:59;;;;;;;22.23;15.95;;;-0.20;99.90;;;;;;4977726;28;20174;-73
2022/12/13 02:39:31;;;;;;;25.98;16.35;;;-0.20;99.90;;;;;;4993146;28;20171;-73
2022/12/13 02:42:03;;;;;;;18.58;13.38;;;-0.20;99.90;;;;;;4996172;28;20182;-72
2022/12/13 02:44:38;;;;;;;23.52;15.50;;;-0.30;99.90;;;;;;4993644;28;20741;-73
2022/12/13 02:47:14;;;;;;;23.85;15.20;;;-0.30;99.90;;;;;;4993322;28;20188;-73
2022/12/13 02:49:45;;;;;;;22.50;15.48;;;-0.30;99.90;;;;;;4992787;28;20692;-73
2022/12/13 02:52:15;;;;;;;25.23;16.75;;;-0.30;99.90;;;;;;5009643;28;20178;-73
2022/12/13 02:54:41;;;;;;;24.85;17.70;;;-0.30;99.90;;;;;;4977045;28;20257;-73
2022/12/13 02:57:37;;;;;;;24.30;17.17;;;-0.30;99.90;;;;;;5010439;28;20177;-74
2022/12/13 03:00:08;;;;;;;22.90;15.30;;;-0.40;99.90;;;;;;5010599;28;20170;-73
2022/12/13 03:02:55;;;;;;;27.80;16.65;;;-0.40;99.90;;;;;;4991828;28;20174;-73
2022/12/13 03:08:53;;;;;;;22.42;15.57;;;-0.40;99.90;;;;;;4992216;28;20700;-73
2022/12/13 03:11:22;;;;;;;24.35;16.80;;;-0.40;99.90;;;;;;4971431;28;20256;-74
2022/12/13 03:14:06;;;;;;;21.25;15.00;;;-0.50;99.90;;;;;;4991726;28;20213;-73
2022/12/13 03:16:39;;;;;;;25.27;15.82;;;-0.50;99.90;;;;;;5010162;28;20253;-73
2022/12/13 03:19:08;;;;;;;21.55;14.10;;;-0.50;99.90;;;;;;4996188;28;20178;-72
2022/12/13 03:21:40;;;;;;;24.92;15.32;;;-0.50;99.90;;;;;;4991493;28;20177;-73
2022/12/13 03:24:07;;;;;;;24.67;15.85;;;-0.60;99.90;;;;;;4992013;28;20202;-73
2022/12/13 03:26:33;;;;;;;25.50;16.73;;;-0.60;99.90;;;;;;4992868;28;20181;-73
2022/12/13 03:29:00;;;;;;;26.23;16.33;;;-0.60;99.90;;;;;;4992163;28;20570;-74
2022/12/13 03:31:28;;;;;;;24.55;14.68;;;-0.60;99.90;;;;;;5008918;28;20226;-73
2022/12/13 03:33:53;;;;;;;24.47;15.50;;;-0.60;99.90;;;;;;4992018;28;20213;-73
2022/12/13 03:36:20;;;;;;;25.30;15.97;;;-0.60;99.90;;;;;;4975902;28;20245;-74
2022/12/13 03:38:47;;;;;;;28.08;14.93;;;-0.60;99.90;;;;;;4975805;28;20182;-74
2022/12/13 03:41:16;;;;;;;24.23;16.40;;;-0.60;99.90;;;;;;5008716;28;20210;-73
2022/12/13 03:43:43;;;;;;;20.80;14.18;;;-0.70;99.90;;;;;;4991705;28;20190;-74
2022/12/13 03:46:09;;;;;;;21.40;15.82;;;-0.70;99.90;;;;;;4985112;28;20225;-73
2022/12/13 03:48:35;;;;;;;18.38;12.57;;;-0.70;99.90;;;;;;5022937;28;20178;-73
2022/12/13 03:51:01;;;;;;;26.33;16.00;;;-0.70;99.90;;;;;;4999170;28;20198;-73
2022/12/13 03:53:28;;;;;;;26.63;16.90;;;-0.70;99.90;;;;;;5020166;28;20604;-73
2022/12/13 03:55:54;;;;;;;20.35;14.65;;;-0.70;99.90;;;;;;5022765;28;20170;-73
2022/12/13 03:58:20;;;;;;;23.53;16.40;;;-0.70;99.90;;;;;;5005222;28;20285;-74
2022/12/13 04:00:46;;;;;;;26.00;18.42;;;-0.70;99.90;;;;;;5023993;28;20596;-73
2022/12/13 04:03:11;;;;;;;29.57;16.00;;;-0.80;99.90;;;;;;5001962;28;20198;-73
2022/12/13 04:05:37;;;;;;;29.60;19.43;;;-0.80;99.90;;;;;;5017408;28;20577;-73
2022/12/13 04:08:03;;;;;;;25.70;17.57;;;-0.90;99.90;;;;;;5026038;28;20572;-73
2022/12/13 04:10:29;;;;;;;28.23;19.58;;;-0.90;99.90;;;;;;5005983;28;20280;-73
2022/12/13 04:15:47;;;;;;;24.15;15.38;;;-1.00;99.90;;;;;;4990386;28;20271;-73
2022/12/13 04:18:22;;;;;;;28.52;17.33;;;-1.00;99.90;;;;;;5000032;28;20192;-73
2022/12/13 04:20:48;;;;;;;23.70;17.42;;;-1.10;99.90;;;;;;5005356;28;20177;-73
2022/12/13 04:23:14;;;;;;;29.07;18.17;;;-1.10;99.90;;;;;;5022508;28;20255;-73
2022/12/13 04:25:41;;;;;;;24.23;16.73;;;-1.10;99.90;;;;;;5005527;28;20611;-73
2022/12/13 04:28:07;;;;;;;23.27;17.08;;;-1.10;99.90;;;;;;5008597;28;20605;-74
2022/12/13 04:30:34;;;;;;;28.30;20.00;;;-1.10;99.90;;;;;;5006881;28;20190;-73
2022/12/13 04:33:00;;;;;;;27.63;17.58;;;-1.20;99.90;;;;;;5032387;28;20169;-73
2022/12/13 04:35:25;;;;;;;24.50;17.13;;;-1.20;99.90;;;;;;5018100;28;20649;-72
2022/12/13 04:37:51;;;;;;;28.93;20.27;;;-1.20;99.90;;;;;;5032684;28;20580;-73
2022/12/13 04:40:17;;;;;;;28.65;17.08;;;-1.30;99.90;;;;;;5014415;28;20582;-73
2022/12/13 04:42:43;;;;;;;24.33;17.37;;;-1.40;99.90;;;;;;5031585;28;20165;-73
2022/12/13 04:45:14;;;;;;;25.80;17.77;;;-1.40;99.90;;;;;;5014560;28;20552;-73
2022/12/13 04:47:40;;;;;;;23.30;16.65;;;-1.40;99.90;;;;;;5014620;28;20906;-73
2022/12/13 04:50:06;;;;;;;31.60;19.53;;;-1.50;99.90;;;;;;5031727;28;20243;-74
2022/12/13 04:52:32;;;;;;;32.00;21.00;;;-1.50;99.90;;;;;;5002421;28;20185;-73
2022/12/13 04:54:57;;;;;;;28.80;20.13;;;-1.50;99.90;;;;;;4994831;28;20505;-74
2022/12/13 04:57:23;;;;;;;26.70;20.20;;;-1.60;99.90;;;;;;5012347;28;20206;-73
2022/12/13 05:03:37;;;;;;;23.95;16.33;;;-1.60;99.90;;;;;;4994589;28;21007;-74
2022/12/13 05:06:08;;;;;;;30.55;21.15;;;-1.60;99.90;;;;;;4994586;28;20182;-74
2022/12/13 05:08:35;;;;;;;25.75;17.05;;;-1.70;99.90;;;;;;4994689;28;20550;-73
2022/12/13 05:11:00;;;;;;;29.95;18.52;;;-1.70;99.90;;;;;;4997291;28;20206;-73
2022/12/13 05:13:27;;;;;;;30.77;20.80;;;-1.70;99.90;;;;;;5011497;28;20190;-74
2022/12/13 05:15:55;;;;;;;28.80;19.73;;;-1.70;99.90;;;;;;5011665;28;20171;-73
2022/12/13 05:18:21;;;;;;;29.30;18.88;;;-1.80;99.90;;;;;;4993556;28;20174;-73
2022/12/13 05:20:47;;;;;;;29.77;18.50;;;-1.80;99.90;;;;;;5011512;28;20162;-72
2022/12/13 05:23:12;;;;;;;27.63;17.07;;;-1.90;99.90;;;;;;5011443;28;20198;-74
2022/12/13 05:25:38;;;;;;;24.30;16.53;;;-1.90;99.90;;;;;;4994385;28;20542;-73
2022/12/13 05:28:04;;;;;;;26.80;16.83;;;-1.90;99.90;;;;;;4994066;28;20202;-74
2022/12/13 05:30:30;;;;;;;26.75;17.25;;;-1.90;99.90;;;;;;4993704;28;20213;-73
2022/12/13 05:32:55;;;;;;;30.10;17.97;;;-1.90;99.90;;;;;;5011448;28;20166;-73
2022/12/13 05:35:21;;;;;;;28.00;19.33;;;-1.90;99.90;;;;;;4993835;28;20266;-73
2022/12/13 05:37:47;;;;;;;26.23;17.93;;;-1.90;99.90;;;;;;4993998;28;20221;-74
2022/12/13 05:40:13;;;;;;;23.00;15.67;;;-1.90;99.90;;;;;;5010945;28;20175;-73
2022/12/13 05:42:38;;;;;;;21.67;15.30;;;-1.90;99.90;;;;;;4977569;28;20531;-73
2022/12/13 05:45:07;;;;;;;25.97;16.00;;;-1.80;99.90;;;;;;5010878;28;20621;-73
2022/12/13 05:47:33;;;;;;;19.80;13.30;;;-1.80;99.90;;;;;;5012653;28;20174;-73
2022/12/13 05:49:58;;;;;;;21.10;14.30;;;-1.70;99.90;;;;;;4992331;28;20241;-74
2022/12/13 05:52:24;;;;;;;26.80;17.30;;;-1.70;99.90;;;;;;5009507;28;20194;-74
2022/12/13 05:54:55;;;;;;;25.87;15.43;;;-1.70;99.90;;;;;;5011535;28;20573;-74
2022/12/13 05:57:20;;;;;;;26.52;17.13;;;-1.70;99.90;;;;;;5003108;28;20757;-74
2022/12/13 05:59:46;;;;;;;21.17;15.23;;;-1.70;99.90;;;;;;5027415;28;20176;-74
2022/12/13 06:02:12;;;;;;;31.37;18.83;;;-1.70;99.90;;;;;;5014643;28;20676;-74
2022/12/13 06:04:38;;;;;;;25.85;16.27;;;-1.60;99.90;;;;;;5015114;28;20642;-73
2022/12/13 06:07:04;;;;;;;21.43;15.97;;;-1.70;99.90;;;;;;5013804;28;20177;-74
2022/12/13 06:09:30;;;;;;;19.60;13.93;;;-1.70;99.90;;;;;;5012583;28;20174;-73
2022/12/13 06:11:55;;;;;;;22.60;16.03;;;-1.60;99.90;;;;;;4994787;28;20613;-74
2022/12/13 06:14:21;;;;;;;25.67;17.63;;;-1.70;99.90;;;;;;5012548;28;20593;-74
2022/12/13 06:16:47;;;;;;;30.70;18.95;;;-1.70;99.90;;;;;;5028062;28;20649;-73
2022/12/13 06:19:13;;;;;;;28.70;18.10;;;-1.70;99.90;;;;;;5027778;28;20206;-73
2022/12/13 06:21:38;;;;;;;24.73;15.90;;;-1.70;99.90;;;;;;5011974;28;20678;-73
2022/12/13 06:24:06;;;;;;;24.67;16.63;;;-1.70;99.90;;;;;;5027445;28;20200;-74
2022/12/13 06:26:32;;;;;;;26.17;16.15;;;-1.70;99.90;;;;;;5013100;28;20186;-74
2022/12/13 06:28:58;;;;;;;22.05;16.00;;;-1.70;99.90;;;;;;4994385;28;20174;-74
2022/12/13 06:31:24;;;;;;;20.40;14.50;;;-1.70;99.90;;;;;;4993310;28;20210;-73
2022/12/13 06:33:50;;;;;;;21.60;14.55;;;-1.70;99.90;;;;;;4994875;28;20221;-73
2022/12/13 06:36:16;;;;;;;20.00;13.97;;;-1.60;99.90;;;;;;4995076;28;20610;-74
2022/12/13 06:38:42;;;;;;;24.17;15.68;;;-1.60;99.90;;;;;;4979179;28;20171;-74
2022/12/13 06:41:10;;;;;;;23.13;14.57;;;-1.60;99.90;;;;;;5011603;28;20181;-74
2022/12/13 06:43:37;;;;;;;26.40;15.45;;;-1.60;99.90;;;;;;4994495;28;20236;-73
2022/12/13 06:46:04;;;;;;;21.95;14.43;;;-1.60;99.90;;;;;;5011028;28;20711;-73
2022/12/13 06:48:30;;;;;;;30.00;19.33;;;-1.60;99.90;;;;;;5012191;28;20175;-73
2022/12/13 06:51:02;;;;;;;29.60;18.20;;;-1.60;99.90;;;;;;5011024;28;20633;-73
2022/12/13 06:53:29;;;;;;;23.67;15.45;;;-1.60;99.90;;;;;;4995186;28;20720;-73
2022/12/13 06:55:55;;;;;;;29.20;18.08;;;-1.60;99.90;;;;;;5010875;28;20270;-73
2022/12/13 06:58:21;;;;;;;24.30;16.08;;;-1.60;99.90;;;;;;5026520;28;20578;-74
2022/12/13 07:00:47;;;;;;;19.80;13.35;;;-1.60;99.90;;;;;;5011311;28;20182;-73
2022/12/13 07:03:14;;;;;;;23.90;15.10;;;-1.60;99.90;;;;;;4985341;28;20193;-73
2022/12/13 07:05:40;;;;;;;25.50;14.73;;;-1.60;99.90;;;;;;4994237;28;20601;-73
2022/12/13 07:08:06;;;;;;;22.17;14.93;;;-1.50;99.90;;;;;;4993920;28;20186;-74
2022/12/13 07:10:32;;;;;;;25.00;16.17;;;-1.50;99.90;;;;;;4994478;28;20209;-73
2022/12/13 07:12:58;;;;;;;20.15;12.90;;;-1.50;99.90;;;;;;5010885;28;20574;-73
2022/12/13 07:15:23;;;;;;;17.77;12.67;;;-1.50;99.90;;;;;;4994632;28;20176;-73
2022/12/13 07:17:50;;;;;;;21.17;13.43;;;-1.50;99.90;;;;;;4994065;28;20574;-74
2022/12/13 07:20:18;;;;;;;19.98;14.02;;;-1.50;99.90;;;;;;4993227;28;20585;-73
2022/12/13 07:22:45;;;;;;;21.67;14.15;;;-1.50;99.90;;;;;;4992506;28;20633;-71
2022/12/13 07:25:10;;;;;;;19.83;13.80;;;-1.50;99.90;;;;;;5017094;28;20230;-72
2022/12/13 07:27:36;;;;;;;23.57;13.97;;;-1.50;99.90;;;;;;5005114;28;20208;-71
2022/12/13 07:30:02;;;;;;;23.33;14.17;;;-1.40;99.90;;;;;;5001122;28;20209;-73
2022/12/13 07:32:28;;;;;;;22.98;14.40;;;-1.40;99.90;;;;;;5004760;28;20184;-73
2022/12/13 07:34:54;;;;;;;24.73;15.98;;;-1.30;99.90;;;;;;4996171;28;20192;-73
2022/12/13 07:37:20;;;;;;;26.33;15.27;;;-1.30;99.90;;;;;;4993129;28;20519;-74
2022/12/13 07:39:45;;;;;;;25.23;15.97;;;-1.30;99.90;;;;;;4993421;28;20229;-74
2022/12/13 07:42:11;;;;;;;22.53;15.47;;;-1.40;99.90;;;;;;4992703;28;20175;-73
2022/12/13 07:44:37;;;;;;;20.03;13.23;;;-1.40;99.90;;;;;;4977393;28;20566;-73
2022/12/13 07:47:02;;;;;;;25.87;15.87;;;-1.40;99.90;;;;;;4993218;28;20228;-73
2022/12/13 07:49:28;;;;;;;24.50;15.40;;;-1.50;99.90;;;;;;5010732;28;20206;-75
2022/12/13 07:51:54;;;;;;;20.47;14.57;;;-1.50;99.90;;;;;;4992906;28;20645;-74
2022/12/13 07:54:20;;;;;;;22.03;14.00;;;-1.50;99.90;;;;;;5011559;28;20197;-74
2022/12/13 07:56:46;;;;;;;23.25;13.20;;;-1.50;99.90;;;;;;5010829;28;20200;-74
2022/12/13 07:59:12;;;;;;;18.27;12.60;;;-1.50;99.90;;;;;;5011489;28;20666;-73
2022/12/13 08:01:37;;;;;;;21.90;13.87;;;-1.50;99.90;;;;;;5012103;28;20170;-73
2022/12/13 08:04:03;;;;;;;22.73;15.30;;;-1.50;99.90;;;;;;5014626;28;20226;-72
2022/12/13 08:06:33;;;;;;;20.67;13.35;;;-1.50;99.90;;;;;;4997814;28;20269;-72
2022/12/13 08:09:02;;;;;;;20.55;14.40;;;-1.50;99.90;;;;;;5014740;28;20170;-73
2022/12/13 08:11:27;;;;;;;22.73;15.38;;;-1.50;99.90;;;;;;5014379;28;20216;-73
2022/12/13 08:13:53;;;;;;;23.00;15.13;;;-1.50;99.90;;;;;;4996909;28;20205;-73
2022/12/13 08:16:19;;;;;;;21.47;12.97;;;-1.40;99.90;;;;;;5015171;28;20209;-73
2022/12/13 08:18:46;;;;;;;24.50;16.73;;;-1.40;99.90;;;;;;4980976;28;20679;-74
2022/12/13 08:21:13;;;;;;;23.35;16.40;;;-1.40;99.90;;;;;;5013943;28;20174;-73
2022/12/13 08:23:40;;;;;;;22.20;14.45;;;-1.40;99.90;;;;;;4996957;28;20287;-73
2022/12/13 08:26:06;;;;;;;22.25;13.52;;;-1.40;99.90;;;;;;4997075;28;20545;-73
2022/12/13 08:28:32;;;;;;;23.23;14.43;;;-1.30;99.90;;;;;;5014821;28;20233;-73
2022/12/13 08:31:06;;;;;;;21.95;15.00;;;-1.30;99.90;;;;;;5014072;28;20563;-74
2022/12/13 08:33:33;;;;;;;27.42;16.85;;;-1.30;99.90;;;;;;5014811;28;20550;-84
2022/12/13 08:36:10;;;;;;;23.00;14.98;;;-1.20;99.90;;;;;;4996978;28;20183;-85
2022/12/13 08:38:36;;;;;;;19.95;13.52;;;-1.20;99.90;;;;;;4995587;28;20175;-83
2022/12/13 08:41:03;;;;;;;20.05;13.27;;;-1.10;99.90;;;;;;4977208;28;20179;-81
2022/12/13 08:43:28;;;;;;;22.55;15.23;;;-1.00;99.90;;;;;;4995360;28;20191;-84
2022/12/13 08:45:54;;;;;;;16.30;12.40;;;-1.00;99.90;;;;;;4995115;28;20198;-81
2022/12/13 08:48:20;;;;;;;21.70;12.47;;;-0.90;99.90;;;;;;4996401;28;20230;-82
2022/12/13 08:50:45;;;;;;;25.50;16.27;;;-0.90;99.90;;;;;;5003977;28;20217;-82
2022/12/13 08:53:11;;;;;;;24.13;15.17;;;-0.90;99.90;;;;;;5006163;28;20684;-81
2022/12/13 08:55:37;;;;;;;23.90;16.27;;;-0.80;99.90;;;;;;5009314;28;20643;-82
2022/12/13 08:58:07;;;;;;;22.80;14.77;;;-0.80;99.90;;;;;;5029870;28;20543;-79
2022/12/13 09:00:33;;;;;;;24.30;16.20;;;-0.70;99.90;;;;;;5016044;28;21103;-83
2022/12/13 09:03:00;;;;;;;20.70;14.40;;;-0.70;99.90;;;;;;5016143;28;20185;-84
2022/12/13 09:05:26;;;;;;;22.38;14.02;;;-0.60;99.90;;;;;;5034002;28;20537;-84
2022/12/13 09:07:57;;;;;;;26.53;15.80;;;-0.60;99.90;;;;;;4999821;28;20186;-84
2022/12/13 09:10:23;;;;;;;25.02;14.50;;;-0.60;99.90;;;;;;5015038;28;20224;-82
2022/12/13 09:12:49;;;;;;;20.98;13.85;;;-0.50;99.90;;;;;;5033231;28;20510;-83
2022/12/13 09:15:15;;;;;;;28.63;17.70;;;-0.40;99.90;;;;;;5015651;28;20177;-81
2022/12/13 09:17:40;;;;;;;22.92;13.27;;;-0.40;99.90;;;;;;5016368;28;20603;-82
2022/12/13 09:20:10;;;;;;;18.33;12.13;;;-0.30;99.90;;;;;;5032885;28;20213;-82
2022/12/13 09:22:37;;;;;;;27.30;16.75;;;-0.30;99.90;;;;;;4983284;28;20201;-82
2022/12/13 09:25:04;;;;;;;25.67;16.15;;;-0.20;99.90;;;;;;5015817;28;20189;-82
2022/12/13 09:27:31;;;;;;;21.75;13.48;;;-0.10;99.90;;;;;;5016123;28;20169;-82
2022/12/13 09:29:57;;;;;;;20.35;13.85;;;0.00;99.90;;;;;;5015285;28;20212;-82
2022/12/13 09:32:24;;;;;;;26.30;15.05;;;0.10;99.90;;;;;;5037260;28;20166;-83
2022/12/13 09:34:50;;;;;;;19.48;13.05;;;0.10;99.90;;;;;;5028397;28;20183;-82
2022/12/13 09:37:16;;;;;;;24.60;15.73;;;0.20;99.90;;;;;;4996433;28;20693;-83
2022/12/13 09:39:41;;;;;;;23.45;14.32;;;0.30;99.90;;;;;;5016190;28;20671;-83
2022/12/13 09:42:23;;;;;;;23.20;14.20;;;0.40;99.90;;;;;;5013684;28;20269;-84
2022/12/13 09:44:56;;;;;;;19.77;14.38;;;0.50;99.90;;;;;;5014191;28;20190;-83
2022/12/13 09:47:38;;;;;;;19.40;13.63;;;0.60;99.90;;;;;;4996662;28;20537;-84
2022/12/13 09:50:12;;;;;;;19.45;12.10;;;0.70;99.90;;;;;;5009208;28;20200;-84
2022/12/13 09:52:40;;;;;;;17.63;12.95;;;0.80;99.90;;;;;;5004056;28;20186;-84
2022/12/13 09:55:30;;;;;;;19.10;11.73;;;0.80;99.90;;;;;;4982804;28;20198;-85
2022/12/13 09:57:57;;;;;;;21.65;13.52;;;0.90;99.90;;;;;;4980320;28;20305;-86
2022/12/13 10:00:26;;;;;;;18.85;12.27;;;1.00;99.90;;;;;;4979445;28;20174;-86
2022/12/13 10:02:56;;;;;;;18.77;12.15;;;1.00;99.90;;;;;;4995835;28;20596;-84
2022/12/13 10:05:35;;;;;;;20.60;14.07;;;1.10;99.90;;;;;;5012681;28;20175;-84
2022/12/13 10:08:15;;;;;;;19.02;12.93;;;1.20;99.90;;;;;;4998017;28;20281;-85
2022/12/13 10:10:42;;;;;;;28.00;16.45;;;1.10;99.90;;;;;;4996832;28;20308;-85
2022/12/13 10:13:19;;;;;;;21.38;13.57;;;1.20;99.90;;;;;;4994952;28;20273;-85
2022/12/13 10:15:50;;;;;;;21.42;13.43;;;1.30;99.90;;;;;;4995108;28;20247;-85
2022/12/13 10:18:25;;;;;;;18.13;13.13;;;1.40;99.90;;;;;;4995755;28;20638;-85
2022/12/13 10:20:52;;;;;;;25.90;14.35;;;1.40;99.90;;;;;;5012468;28;20284;-86
2022/12/13 10:23:18;;;;;;;20.30;11.77;;;1.50;99.90;;;;;;5012763;28;20205;-85
2022/12/13 10:25:48;;;;;;;17.42;12.13;;;1.50;99.90;;;;;;4978606;28;20213;-86
2022/12/13 10:28:23;;;;;;;19.38;13.68;;;1.50;99.90;;;;;;5012787;28;20171;-85
2022/12/13 10:30:49;;;;;;;21.08;14.80;;;1.40;99.90;;;;;;5012682;28;20202;-84
2022/12/13 10:33:26;;;;;;;20.25;12.48;;;1.40;99.90;;;;;;5005213;28;20257;-83
2022/12/13 10:36:15;;;;;;;15.52;9.73;;;1.40;99.90;;;;;;5007461;28;20177;-83
2022/12/13 10:38:44;;;;;;;19.92;12.60;;;1.50;99.90;;;;;;5001733;28;20170;-82
2022/12/13 10:41:33;;;;;;;18.30;13.38;;;1.50;99.90;;;;;;5004563;28;20182;-84
2022/12/13 10:44:07;;;;;;;18.40;13.43;;;1.60;99.90;;;;;;5010894;28;20190;-85
2022/12/13 10:46:33;;;;;;;16.08;11.27;;;1.60;99.90;;;;;;5018636;28;20269;-84
2022/12/13 10:49:00;;;;;;;18.25;11.02;;;1.60;99.90;;;;;;5014946;28;20206;-84
2022/12/13 10:51:35;;;;;;;18.90;12.98;;;1.70;99.90;;;;;;4981371;28;20849;-85
2022/12/13 10:54:01;;;;;;;18.90;11.65;;;1.70;99.90;;;;;;5017526;28;20195;-86
2022/12/13 10:56:48;;;;;;;20.30;12.80;;;1.70;99.90;;;;;;5019255;28;20169;-85
2022/12/13 10:59:17;;;;;;;21.27;12.50;;;1.70;99.90;;;;;;5039909;28;20200;-85
2022/12/13 11:01:43;;;;;;;20.70;13.18;;;1.70;99.90;;;;;;5013912;28;20175;-85
2022/12/13 11:04:23;;;;;;;17.27;12.45;;;1.70;99.90;;;;;;5015185;28;20216;-84
2022/12/13 11:06:49;;;;;;;17.30;11.75;;;1.70;99.90;;;;;;5021731;28;20203;-85
2022/12/13 11:09:26;;;;;;;18.13;12.70;;;1.80;99.90;;;;;;5002328;28;20174;-83
2022/12/13 11:11:53;;;;;;;18.98;11.75;;;1.80;99.90;;;;;;5034456;28;20713;-82
2022/12/13 11:14:25;;;;;;;17.85;13.35;;;1.80;99.90;;;;;;5036118;28;20217;-82
2022/12/13 11:16:56;;;;;;;17.08;12.00;;;1.90;99.90;;;;;;5016119;28;20177;-82
2022/12/13 11:19:44;;;;;;;17.50;13.32;;;1.90;99.90;;;;;;5025514;28;20189;-84
2022/12/13 11:22:34;;;;;;;15.70;10.55;;;1.90;99.90;;;;;;5011846;28;20174;-82
2022/12/13 11:25:08;;;;;;;20.70;13.65;;;1.90;99.90;;;;;;5018142;28;20300;-82
2022/12/13 11:27:58;;;;;;;19.58;13.38;;;2.00;99.90;;;;;;4994018;28;20281;-81
2022/12/13 11:30:45;;;;;;;20.17;11.75;;;1.90;99.90;;;;;;5014477;28;20193;-82
2022/12/13 11:33:11;;;;;;;20.23;10.20;;;1.80;99.90;;;;;;4979442;28;20279;-81
2022/12/13 11:36:01;;;;;;;17.43;12.37;;;1.90;99.90;;;;;;5011647;28;20175;-80
2022/12/13 11:38:30;;;;;;;16.73;11.43;;;1.90;99.90;;;;;;5010451;28;20254;-81
2022/12/13 11:41:10;;;;;;;15.75;11.23;;;1.90;99.90;;;;;;4993515;28;20261;-82
2022/12/13 11:43:38;;;;;;;17.55;12.40;;;1.90;99.90;;;;;;5017486;28;20276;-82
2022/12/13 11:46:14;;;;;;;14.70;10.20;;;1.90;99.90;;;;;;5016858;28;20179;-82
2022/12/13 11:48:49;;;;;;;13.60;9.30;;;1.90;99.90;;;;;;5006016;28;20177;-84
2022/12/13 11:51:26;;;;;;;16.20;10.90;;;1.90;99.90;;;;;;4996925;28;20292;-84
2022/12/13 11:53:59;;;;;;;14.93;12.02;;;2.00;99.90;;;;;;5001136;28;20276;-83
2022/12/13 11:56:46;;;;;;;16.35;11.23;;;2.00;99.90;;;;;;4998615;28;20787;-84
2022/12/13 11:59:41;;;;;;;18.48;12.45;;;1.90;99.90;;;;;;5028538;28;20174;-82
2022/12/13 12:02:23;;;;;;;18.48;10.63;;;2.00;99.90;;;;;;5018135;28;20174;-82
2022/12/13 12:04:54;;;;;;;14.50;10.02;;;2.10;99.90;;;;;;5031057;28;20197;-82
2022/12/13 12:07:35;;;;;;;14.80;9.85;;;2.10;99.90;;;;;;4998580;28;20227;-85
2022/12/13 12:10:25;;;;;;;15.48;9.88;;;2.20;99.90;;;;;;4980441;28;20212;-84
2022/12/13 12:13:22;;;;;;;15.98;11.20;;;2.20;99.90;;;;;;5012766;28;20626;-84
2022/12/13 12:15:54;;;;;;;16.63;12.70;;;2.30;99.90;;;;;;5011057;28;20684;-82
2022/12/13 12:18:19;;;;;;;16.95;10.70;;;2.20;99.90;;;;;;5030711;28;20180;-83
2022/12/13 12:20:56;;;;;;;20.80;11.40;;;2.20;99.90;;;;;;5030721;28;20174;-84
2022/12/13 12:23:33;;;;;;;21.92;12.63;;;2.30;99.90;;;;;;5030172;28;20201;-83
2022/12/13 12:26:13;;;;;;;17.65;10.90;;;2.20;99.90;;;;;;4997151;28;20178;-82
2022/12/13 12:29:14;;;;;;;15.25;10.18;;;2.30;99.90;;;;;;5030841;28;20252;-81
2022/12/13 12:32:10;;;;;;;14.90;10.07;;;2.30;99.90;;;;;;5030411;28;20204;-83
2022/12/13 12:34:57;;;;;;;24.42;14.45;;;2.40;99.90;;;;;;4984705;28;20534;-84
2022/12/13 12:37:33;;;;;;;17.60;12.13;;;2.30;99.90;;;;;;5031522;28;20744;-84
2022/12/13 12:40:31;;;;;;;16.13;10.57;;;2.30;99.90;;;;;;5033409;28;20168;-84
2022/12/13 12:43:09;;;;;;;15.45;10.65;;;2.30;99.90;;;;;;5031129;28;20210;-84
2022/12/13 12:45:53;;;;;;;17.45;10.60;;;2.40;99.90;;;;;;5030458;28;20538;-84
2022/12/13 12:49:02;;;;;;;16.45;10.85;;;2.40;99.90;;;;;;5015502;28;20180;-81
2022/12/13 12:51:43;;;;;;;15.65;10.00;;;2.40;99.90;;;;;;5012822;28;20202;-81
2022/12/13 12:54:18;;;;;;;15.15;9.50;;;2.40;99.90;;;;;;5022823;28;20280;-82
2022/12/13 12:56:50;;;;;;;14.98;9.07;;;2.40;99.90;;;;;;5016454;28;20177;-82